Terminal Aerodrome Forecast
Issued by NWS Atlanta, GA

Home | Current Version | Previous Version | Text Only | Print | Product List | Glossary On
Versions: 1 2 3 4 5 6 7 8 9 10 11 12
000
FTUS42 KFFC 220520
TAFMCN
TAF
KMCN 220520Z 2206/2306 00000KT P6SM SCT250
     FM221000 14003KT P6SM BKN020
     FM221200 14003KT P6SM BKN012
     FM221400 14004KT P6SM BKN008
     FM221700 18007KT P6SM VCSH BKN012
     FM222300 18010KT 4SM -SHRA OVC008 PROB30 2305/2306 21012G22KT
      4SM TSRA OVC008CB=

USA.gov is the U.S. government's official web portal to all federal, state and local government web resources and services.